createdAt,value
2023-05-24T00:00:05.088Z,12.70
2023-05-24T00:01:37.795Z,14.20
2023-05-24T00:03:10.971Z,12.70
2023-05-24T00:04:45.298Z,12.60
2023-05-24T00:06:18.407Z,12.70
2023-05-24T00:07:53.457Z,12.60
2023-05-24T00:09:26.623Z,12.60
2023-05-24T00:10:59.595Z,12.60
2023-05-24T00:12:31.537Z,12.50
2023-05-24T00:14:04.970Z,12.50
2023-05-24T00:15:37.934Z,12.50
2023-05-24T00:17:11.016Z,12.40
2023-05-24T00:18:47.115Z,12.40
2023-05-24T00:20:21.671Z,14.70
2023-05-24T00:21:53.885Z,12.20
2023-05-24T00:23:27.224Z,12.30
2023-05-24T00:25:00.262Z,12.20
2023-05-24T00:26:32.281Z,12.10
2023-05-24T00:28:05.146Z,12.70
2023-05-24T00:29:39.428Z,12.10
2023-05-24T00:31:12.460Z,12.10
2023-05-24T00:32:45.777Z,12.10
2023-05-24T00:34:18.743Z,12.00
2023-05-24T00:35:56.392Z,12.00
2023-05-24T00:37:29.803Z,12.10
2023-05-24T00:39:02.808Z,12.00
2023-05-24T00:40:34.938Z,12.00
2023-05-24T00:42:08.137Z,12.00
2023-05-24T00:43:40.190Z,12.10
2023-05-24T00:45:15.810Z,12.10
2023-05-24T00:46:48.769Z,12.10
2023-05-24T00:48:24.006Z,12.00
2023-05-24T00:49:57.239Z,12.10
2023-05-24T00:51:32.961Z,12.10
2023-05-24T00:53:06.350Z,12.10
2023-05-24T00:54:40.716Z,12.00
2023-05-24T00:56:14.802Z,12.00
2023-05-24T00:57:48.055Z,12.00
2023-05-24T00:59:21.425Z,12.00
2023-05-24T01:00:57.023Z,12.00
2023-05-24T01:02:33.206Z,13.60
2023-05-24T01:04:07.509Z,11.90
2023-05-24T01:05:40.512Z,11.90
2023-05-24T01:07:19.824Z,11.90
2023-05-24T01:09:03.130Z,12.00
2023-05-24T01:10:41.727Z,11.90
2023-05-24T01:12:18.652Z,11.90
2023-05-24T01:13:55.286Z,11.80
2023-05-24T01:15:31.587Z,11.80
2023-05-24T01:17:09.492Z,11.80
2023-05-24T01:18:44.360Z,11.80
2023-05-24T01:20:18.784Z,11.70
2023-05-24T01:22:06.649Z,11.70
2023-05-24T01:23:44.893Z,11.70
2023-05-24T01:25:20.639Z,11.60
2023-05-24T01:27:08.686Z,11.60
2023-05-24T01:28:43.411Z,11.50
2023-05-24T01:30:15.634Z,11.60
2023-05-24T01:31:48.618Z,11.50
2023-05-24T01:33:22.164Z,11.50
2023-05-24T01:34:55.110Z,11.50
2023-05-24T01:36:28.226Z,11.50
2023-05-24T01:38:00.154Z,11.60
2023-05-24T01:39:35.926Z,11.60
2023-05-24T01:41:15.082Z,13.10
2023-05-24T01:42:53.356Z,11.50
2023-05-24T01:44:27.822Z,14.10
2023-05-24T01:46:04.222Z,11.40
2023-05-24T01:47:43.236Z,10.30
2023-05-24T01:49:20.494Z,11.50
2023-05-24T01:50:54.481Z,11.50
2023-05-24T01:52:30.141Z,11.50
2023-05-24T01:54:05.949Z,11.50
2023-05-24T01:55:38.082Z,13.70
2023-05-24T01:57:11.510Z,11.50
2023-05-24T01:58:46.972Z,11.50
2023-05-24T02:00:19.256Z,11.60
2023-05-24T02:01:52.099Z,11.50
2023-05-24T02:03:24.920Z,11.40
2023-05-24T02:04:58.901Z,11.50
2023-05-24T02:06:31.690Z,11.50
2023-05-24T02:08:04.554Z,11.50
2023-05-24T02:09:37.419Z,11.40
2023-05-24T02:11:09.336Z,11.40
2023-05-24T02:12:42.141Z,11.40
2023-05-24T02:14:17.299Z,11.40
2023-05-24T02:15:49.888Z,11.40
2023-05-24T02:17:23.093Z,11.40
2023-05-24T02:18:55.900Z,11.30
2023-05-24T02:20:31.048Z,11.40
2023-05-24T02:22:04.557Z,11.30
2023-05-24T02:23:37.477Z,11.40
2023-05-24T02:25:09.506Z,11.30
2023-05-24T02:26:42.394Z,11.30
2023-05-24T02:28:16.015Z,11.30
2023-05-24T02:29:49.252Z,11.30
2023-05-24T02:31:22.724Z,11.40
2023-05-24T02:32:54.721Z,11.30
2023-05-24T02:34:27.607Z,11.30
2023-05-24T02:35:59.449Z,11.30
2023-05-24T02:37:32.219Z,11.00
2023-05-24T02:39:06.018Z,11.30
2023-05-24T02:40:38.750Z,11.30
2023-05-24T02:42:11.566Z,11.40
2023-05-24T03:22:32.303Z,11.30
2023-05-24T03:24:05.643Z,11.30
2023-05-24T03:27:11.592Z,11.30
2023-05-24T03:36:32.832Z,11.30
2023-05-24T03:38:07.100Z,11.30
2023-05-24T03:42:46.295Z,11.30
2023-05-24T03:55:12.334Z,11.30
2023-05-24T03:56:45.714Z,11.30
2023-05-24T03:58:18.534Z,11.30
2023-05-24T03:59:51.360Z,11.30
2023-05-24T04:01:33.268Z,11.30
2023-05-24T04:03:09.309Z,11.30
2023-05-24T04:04:42.200Z,11.20
2023-05-24T04:06:17.502Z,11.20
2023-05-24T04:07:50.887Z,11.20
2023-05-24T04:09:25.912Z,11.20
2023-05-24T04:11:00.122Z,11.30
2023-05-24T04:12:33.021Z,11.20
2023-05-24T04:14:06.317Z,11.20
2023-05-24T04:15:39.362Z,11.20
2023-05-24T04:18:45.436Z,11.10
2023-05-24T04:20:18.509Z,11.10
2023-05-24T04:21:51.299Z,11.10
2023-05-24T04:23:23.106Z,11.10
2023-05-24T04:24:55.991Z,11.10
2023-05-24T04:28:04.476Z,11.10
2023-05-24T04:31:10.479Z,11.20
2023-05-24T04:32:44.592Z,11.10
2023-05-24T04:34:17.435Z,11.10
2023-05-24T04:35:50.801Z,11.20
2023-05-24T04:38:56.140Z,11.30
2023-05-24T04:42:02.226Z,11.30
2023-05-24T04:45:10.172Z,11.30
2023-05-24T04:49:49.627Z,11.40
2023-05-24T04:51:22.954Z,11.40
2023-05-24T04:52:55.840Z,11.40
2023-05-24T04:54:28.730Z,11.50
2023-05-24T04:56:01.671Z,11.40
2023-05-24T04:57:33.460Z,11.60
2023-05-24T04:59:06.829Z,11.60
2023-05-24T05:00:41.251Z,11.60
2023-05-24T05:02:14.266Z,11.70
2023-05-24T05:03:47.193Z,11.60
2023-05-24T05:05:20.256Z,11.60
2023-05-24T05:06:53.154Z,11.70
2023-05-24T05:08:25.942Z,11.70
2023-05-24T05:09:58.987Z,11.80
2023-05-24T05:11:32.094Z,11.80
2023-05-24T05:13:04.895Z,11.80
2023-05-24T05:14:37.708Z,11.80
2023-05-24T05:16:12.117Z,11.80
2023-05-24T05:17:45.660Z,11.90
2023-05-24T05:19:18.576Z,11.80
2023-05-24T05:20:51.725Z,11.80
2023-05-24T05:22:24.562Z,11.80
2023-05-24T05:23:57.355Z,11.90
2023-05-24T05:25:31.056Z,11.90
2023-05-24T05:27:03.873Z,11.90
2023-05-24T05:28:36.658Z,12.00
2023-05-24T05:30:09.935Z,12.00
2023-05-24T05:31:44.110Z,12.10
2023-05-24T05:33:17.028Z,12.10
2023-05-24T05:34:49.886Z,12.10
2023-05-24T05:36:22.672Z,11.90
2023-05-24T05:37:55.580Z,11.90
2023-05-24T05:39:28.393Z,11.90
2023-05-24T05:41:01.203Z,11.90
2023-05-24T05:42:34.062Z,11.90
2023-05-24T05:44:07.073Z,11.80
2023-05-24T05:45:40.349Z,11.80
2023-05-24T05:47:14.661Z,11.80
2023-05-24T05:50:20.569Z,11.80
2023-05-24T05:51:54.712Z,11.90
2023-05-24T05:53:27.494Z,11.90
2023-05-24T05:55:00.308Z,11.90
2023-05-24T05:56:33.525Z,11.80
2023-05-24T05:58:06.526Z,11.80
2023-05-24T05:59:39.350Z,11.90
2023-05-24T06:01:12.158Z,11.90
2023-05-24T06:02:46.363Z,12.00
2023-05-24T06:04:19.524Z,12.10
2023-05-24T06:05:52.353Z,12.20
2023-05-24T06:07:25.065Z,12.10
2023-05-24T06:08:57.904Z,12.20
2023-05-24T06:10:30.714Z,12.20
2023-05-24T06:12:03.542Z,12.20
2023-05-24T06:13:36.326Z,12.20
2023-05-24T06:15:09.712Z,12.60
2023-05-24T06:16:43.650Z,12.10
2023-05-24T06:18:17.911Z,12.10
2023-05-24T06:19:51.385Z,12.20
2023-05-24T06:21:24.116Z,12.10
2023-05-24T06:22:57.248Z,12.10
2023-05-24T06:24:30.290Z,13.00
2023-05-24T06:26:03.220Z,12.10
2023-05-24T06:27:36.246Z,12.20
2023-05-24T06:29:12.316Z,12.10
2023-05-24T06:30:44.484Z,12.10
2023-05-24T06:32:17.723Z,12.10
2023-05-24T06:34:02.691Z,12.10
2023-05-24T06:35:36.179Z,12.20
2023-05-24T06:37:10.347Z,12.10
2023-05-24T06:38:43.169Z,12.20
2023-05-24T06:40:16.179Z,12.20
2023-05-24T06:41:51.268Z,12.20
2023-05-24T06:43:24.087Z,12.10
2023-05-24T06:44:56.803Z,12.00
2023-05-24T06:46:29.636Z,11.90
2023-05-24T06:48:02.509Z,12.00
2023-05-24T06:49:36.894Z,12.30
2023-05-24T06:51:09.638Z,12.10
2023-05-24T06:52:42.441Z,12.10
2023-05-24T06:54:15.320Z,12.20
2023-05-24T06:55:48.185Z,12.50
2023-05-24T06:57:20.942Z,12.50
2023-05-24T06:58:53.771Z,12.50
2023-05-24T07:00:27.289Z,12.50
2023-05-24T07:02:01.252Z,12.50
2023-05-24T07:03:37.245Z,12.60
2023-05-24T07:05:12.406Z,12.70
2023-05-24T07:06:45.904Z,12.70
2023-05-24T07:08:18.760Z,12.80
2023-05-24T07:09:51.859Z,12.90
2023-05-24T07:11:24.619Z,12.80
2023-05-24T07:12:57.401Z,12.80
2023-05-24T07:14:30.437Z,12.70
2023-05-24T07:16:03.286Z,12.60
2023-05-24T07:17:36.501Z,12.60
2023-05-24T07:19:09.564Z,12.60
2023-05-24T07:20:44.168Z,12.60
2023-05-24T07:22:17.328Z,12.80
2023-05-24T07:23:50.693Z,12.80
2023-05-24T07:25:24.746Z,12.90
2023-05-24T07:26:57.805Z,13.00
2023-05-24T07:28:30.715Z,13.10
2023-05-24T07:30:03.578Z,13.50
2023-05-24T07:31:36.929Z,9.60
2023-05-24T07:33:09.788Z,13.40
2023-05-24T07:34:43.493Z,13.30
2023-05-24T07:36:17.663Z,13.30
2023-05-24T07:37:50.790Z,13.70
2023-05-24T07:39:25.165Z,13.60
2023-05-24T07:41:00.091Z,13.60
2023-05-24T07:42:32.856Z,13.40
2023-05-24T07:44:05.749Z,13.50
2023-05-24T07:45:38.520Z,13.50
2023-05-24T07:47:11.339Z,13.50
2023-05-24T07:48:44.200Z,13.30
2023-05-24T07:50:17.118Z,13.20
2023-05-24T07:51:51.974Z,13.20
2023-05-24T07:53:24.758Z,13.10
2023-05-24T07:54:57.558Z,13.30
2023-05-24T07:56:30.291Z,13.30
2023-05-24T07:58:03.061Z,13.40
2023-05-24T07:59:36.119Z,13.30
2023-05-24T08:01:08.948Z,13.20
2023-05-24T08:02:42.255Z,13.40
2023-05-24T08:04:15.200Z,13.30
2023-05-24T08:05:48.043Z,13.30
2023-05-24T08:07:22.487Z,13.20
2023-05-24T08:08:55.367Z,12.90
2023-05-24T08:10:28.175Z,12.80
2023-05-24T08:12:01.180Z,12.80
2023-05-24T08:13:34.110Z,12.70
2023-05-24T08:15:07.623Z,12.80
2023-05-24T08:16:40.526Z,12.90
2023-05-24T08:18:13.418Z,12.90
2023-05-24T08:19:46.215Z,13.00
2023-05-24T08:21:19.026Z,13.20
2023-05-24T08:22:53.772Z,13.20
2023-05-24T08:24:26.795Z,13.20
2023-05-24T08:25:59.891Z,13.30
2023-05-24T08:27:33.036Z,13.20
2023-05-24T08:29:05.984Z,13.30
2023-05-24T08:30:38.748Z,13.30
2023-05-24T08:32:11.741Z,13.20
2023-05-24T08:33:44.671Z,13.20
2023-05-24T08:35:21.702Z,13.10
2023-05-24T08:36:55.160Z,13.10
2023-05-24T08:38:29.811Z,13.00
2023-05-24T08:40:04.138Z,13.00
2023-05-24T08:41:37.481Z,13.10
2023-05-24T08:43:12.163Z,13.10
2023-05-24T08:44:48.607Z,9.80
2023-05-24T08:46:21.805Z,13.40
2023-05-24T08:47:55.965Z,13.40
2023-05-24T08:49:31.371Z,13.40
2023-05-24T08:51:06.232Z,13.30
2023-05-24T08:52:39.685Z,13.30
2023-05-24T08:54:14.673Z,13.50
2023-05-24T08:55:47.576Z,13.40
2023-05-24T08:57:21.453Z,13.30
2023-05-24T08:58:54.961Z,13.40
2023-05-24T09:00:27.999Z,13.40
2023-05-24T09:02:01.037Z,13.40
2023-05-24T09:03:35.088Z,13.50
2023-05-24T09:05:10.562Z,13.50
2023-05-24T09:06:43.791Z,13.50
2023-05-24T09:08:18.365Z,13.60
2023-05-24T09:09:54.456Z,10.50
2023-05-24T09:11:28.015Z,13.80
2023-05-24T09:13:03.117Z,14.10
2023-05-24T09:14:35.963Z,13.80
2023-05-24T09:16:09.104Z,13.80
2023-05-24T09:17:42.062Z,13.60
2023-05-24T09:19:15.524Z,13.40
2023-05-24T09:20:48.376Z,13.30
2023-05-24T09:22:25.740Z,13.40
2023-05-24T09:23:58.549Z,13.50
2023-05-24T09:25:32.680Z,13.80
2023-05-24T09:27:05.683Z,13.70
2023-05-24T09:28:38.715Z,13.70
2023-05-24T09:30:12.467Z,13.70
2023-05-24T09:31:45.707Z,13.50
2023-05-24T09:33:19.143Z,13.50
2023-05-24T09:34:53.279Z,13.50
2023-05-24T09:36:26.124Z,13.50
2023-05-24T09:38:00.028Z,13.40
2023-05-24T09:39:33.234Z,13.30
2023-05-24T09:41:08.342Z,13.50
2023-05-24T09:42:41.354Z,13.20
2023-05-24T09:44:14.410Z,13.20
2023-05-24T09:45:49.150Z,13.30
2023-05-24T09:47:22.121Z,13.30
2023-05-24T09:48:58.675Z,13.40
2023-05-24T09:50:31.827Z,13.50
2023-05-24T09:52:04.807Z,13.60
2023-05-24T09:53:38.604Z,13.70
2023-05-24T09:55:15.570Z,13.80
2023-05-24T09:56:49.860Z,13.90
2023-05-24T09:58:23.189Z,13.80
2023-05-24T09:59:55.991Z,13.80
2023-05-24T10:01:31.851Z,13.90
2023-05-24T10:03:06.804Z,14.20
2023-05-24T10:04:39.917Z,14.20
2023-05-24T10:06:13.894Z,14.20
2023-05-24T10:07:47.280Z,14.10
2023-05-24T10:09:20.423Z,14.00
2023-05-24T10:10:53.300Z,14.10
2023-05-24T10:12:27.935Z,14.10
2023-05-24T10:14:00.848Z,14.10
2023-05-24T10:15:33.622Z,14.00
2023-05-24T10:17:06.973Z,13.90
2023-05-24T10:18:39.953Z,14.10
2023-05-24T10:20:13.538Z,14.00
2023-05-24T10:21:47.705Z,14.20
2023-05-24T10:23:21.598Z,14.40
2023-05-24T10:24:59.434Z,14.80
2023-05-24T10:26:33.173Z,15.10
2023-05-24T10:28:08.400Z,15.60
2023-05-24T10:29:46.186Z,15.60
2023-05-24T10:31:20.796Z,15.80
2023-05-24T10:32:54.901Z,15.90
2023-05-24T10:34:27.849Z,16.10
2023-05-24T10:36:00.949Z,15.80
2023-05-24T10:37:34.257Z,15.60
2023-05-24T10:39:09.350Z,15.40
2023-05-24T10:40:42.917Z,15.40
2023-05-24T10:42:17.764Z,15.50
2023-05-24T10:44:07.829Z,15.60
2023-05-24T10:45:42.105Z,15.60
2023-05-24T10:47:17.015Z,15.50
2023-05-24T10:49:00.530Z,15.60
2023-05-24T10:50:33.439Z,15.70
2023-05-24T10:52:10.043Z,15.90
2023-05-24T10:53:42.869Z,15.90
2023-05-24T10:55:16.029Z,15.90
2023-05-24T10:56:49.713Z,15.80
2023-05-24T10:58:23.700Z,15.90
2023-05-24T10:59:58.401Z,15.60
2023-05-24T11:01:31.848Z,15.70
2023-05-24T11:03:08.542Z,15.70
2023-05-24T11:04:43.410Z,15.50
2023-05-24T11:06:16.465Z,15.50
2023-05-24T11:07:49.464Z,15.70
2023-05-24T11:09:22.649Z,15.90
2023-05-24T11:11:22.237Z,15.80
2023-05-24T11:12:58.708Z,15.70
2023-05-24T11:14:32.439Z,15.70
2023-05-24T11:16:06.726Z,15.90
2023-05-24T11:17:54.503Z,16.20
2023-05-24T11:19:31.532Z,15.90
2023-05-24T11:21:04.405Z,16.10
2023-05-24T11:22:40.239Z,16.50
2023-05-24T11:24:13.314Z,16.80
2023-05-24T11:25:47.649Z,17.00
2023-05-24T11:27:20.548Z,17.40
2023-05-24T11:28:53.320Z,17.20
2023-05-24T11:30:26.480Z,17.20
2023-05-24T11:32:05.198Z,17.10
2023-05-24T11:33:42.495Z,17.20
2023-05-24T11:35:16.020Z,17.60
2023-05-24T11:36:49.989Z,17.70
2023-05-24T11:38:25.007Z,17.40
2023-05-24T11:39:57.998Z,17.30
2023-05-24T11:41:30.856Z,17.40
2023-05-24T11:43:06.718Z,17.10
2023-05-24T11:44:39.622Z,17.20
2023-05-24T11:46:12.461Z,17.10
2023-05-24T11:47:46.814Z,16.90
2023-05-24T11:49:19.662Z,17.00
2023-05-24T11:50:52.656Z,17.10
2023-05-24T11:52:25.878Z,18.00
2023-05-24T11:53:59.024Z,17.30
2023-05-24T11:55:32.901Z,17.40
2023-05-24T11:57:06.388Z,17.30
2023-05-24T11:58:45.927Z,17.30
2023-05-24T12:00:25.123Z,17.20
2023-05-24T12:02:00.168Z,17.10
2023-05-24T12:03:35.082Z,17.00
2023-05-24T12:05:09.876Z,17.00
2023-05-24T12:06:43.397Z,16.90
2023-05-24T12:08:16.466Z,16.90
2023-05-24T12:09:49.364Z,16.80
2023-05-24T12:11:22.354Z,16.90
2023-05-24T12:12:55.082Z,17.10
2023-05-24T12:14:30.639Z,17.50
2023-05-24T12:16:03.743Z,17.60
2023-05-24T12:17:36.791Z,17.60
2023-05-24T12:19:20.261Z,17.60
2023-05-24T12:21:07.885Z,17.30
2023-05-24T12:22:49.960Z,17.80
2023-05-24T12:24:24.275Z,17.90
2023-05-24T12:26:01.039Z,17.80
2023-05-24T12:27:34.981Z,17.90
2023-05-24T12:29:07.924Z,18.00
2023-05-24T12:30:43.417Z,17.80
2023-05-24T12:32:16.486Z,17.80
2023-05-24T12:33:51.563Z,17.80
2023-05-24T12:35:27.048Z,17.70
2023-05-24T12:37:00.825Z,19.30
2023-05-24T12:38:33.636Z,17.90
2023-05-24T12:40:15.674Z,17.90
2023-05-24T12:41:52.061Z,18.00
2023-05-24T12:43:24.814Z,18.40
2023-05-24T12:44:57.638Z,18.50
2023-05-24T12:46:30.631Z,18.70
2023-05-24T12:48:05.210Z,18.80
2023-05-24T12:49:38.257Z,18.90
2023-05-24T12:51:12.418Z,19.00
2023-05-24T12:52:46.673Z,18.80
2023-05-24T12:54:20.164Z,18.50
2023-05-24T12:55:56.096Z,18.60
2023-05-24T12:57:28.913Z,18.40
2023-05-24T12:59:01.761Z,18.40
2023-05-24T13:00:34.681Z,18.40
2023-05-24T13:02:07.586Z,18.40
2023-05-24T13:03:40.793Z,18.40
2023-05-24T13:05:13.708Z,18.30
2023-05-24T13:06:48.319Z,18.10
2023-05-24T13:08:21.743Z,17.90
2023-05-24T13:09:54.571Z,17.90
2023-05-24T13:11:27.731Z,17.70
2023-05-24T13:13:00.538Z,17.70
2023-05-24T13:14:34.276Z,17.40
2023-05-24T13:16:08.937Z,17.30
2023-05-24T13:17:42.015Z,17.30
2023-05-24T13:19:14.882Z,17.40
2023-05-24T13:20:48.019Z,17.50
2023-05-24T13:22:22.433Z,17.50
2023-05-24T13:23:55.258Z,17.50
2023-05-24T13:25:28.215Z,17.40
2023-05-24T13:27:01.480Z,16.50
2023-05-24T13:28:34.637Z,17.20
2023-05-24T13:30:09.789Z,17.00
2023-05-24T13:31:43.005Z,16.90
2023-05-24T13:33:16.168Z,16.80
2023-05-24T13:34:49.417Z,16.80
2023-05-24T13:36:22.291Z,16.80
2023-05-24T13:37:58.011Z,17.00
2023-05-24T13:39:30.860Z,17.00
2023-05-24T13:41:03.746Z,16.90
2023-05-24T13:42:36.652Z,17.30
2023-05-24T13:44:09.814Z,17.10
2023-05-24T13:45:43.174Z,17.30
2023-05-24T13:47:31.193Z,17.30
2023-05-24T13:49:12.208Z,17.20
2023-05-24T13:50:45.547Z,17.20
2023-05-24T13:52:18.445Z,17.30
2023-05-24T13:53:52.651Z,17.30
2023-05-24T13:55:25.529Z,17.30
2023-05-24T13:56:58.431Z,17.30
2023-05-24T13:58:31.272Z,17.30
2023-05-24T14:00:05.276Z,17.40
2023-05-24T14:01:39.203Z,17.60
2023-05-24T14:03:13.122Z,17.60
2023-05-24T14:04:46.012Z,17.60
2023-05-24T14:06:19.890Z,17.60
2023-05-24T14:07:53.020Z,17.70
2023-05-24T14:09:27.364Z,17.70
2023-05-24T14:11:00.241Z,17.60
2023-05-24T14:12:33.075Z,17.60
2023-05-24T14:15:42.196Z,17.60
2023-05-24T14:17:15.365Z,17.80
2023-05-24T14:18:49.267Z,18.00
2023-05-24T14:20:22.436Z,18.10
2023-05-24T14:21:55.293Z,18.30
2023-05-24T14:23:30.375Z,18.60
2023-05-24T14:25:04.919Z,18.80
2023-05-24T14:26:37.701Z,19.10
2023-05-24T14:28:10.498Z,19.10
2023-05-24T14:29:43.247Z,19.10
2023-05-24T14:31:16.101Z,19.10
2023-05-24T14:32:49.141Z,19.10
2023-05-24T14:34:21.921Z,19.10
2023-05-24T14:35:54.705Z,19.00
2023-05-24T14:37:27.466Z,18.90
2023-05-24T14:39:00.650Z,19.10
2023-05-24T14:40:36.829Z,19.20
2023-05-24T14:42:09.631Z,19.10
2023-05-24T14:43:42.538Z,21.30
2023-05-24T14:45:15.522Z,19.40
2023-05-24T14:46:48.922Z,19.50
2023-05-24T14:48:21.697Z,19.60
2023-05-24T14:49:54.460Z,19.80
2023-05-24T14:51:27.205Z,20.10
2023-05-24T14:53:01.173Z,19.90
2023-05-24T14:54:34.022Z,19.90
2023-05-24T14:56:09.890Z,19.90
2023-05-24T14:57:42.885Z,20.00
2023-05-24T14:59:16.061Z,20.00
2023-05-24T15:00:49.241Z,20.00
2023-05-24T15:02:22.298Z,17.90
2023-05-24T15:03:55.146Z,19.80
2023-05-24T15:05:27.105Z,19.70
2023-05-24T15:06:59.904Z,19.50
2023-05-24T15:08:34.744Z,19.30
2023-05-24T15:10:08.186Z,19.10
2023-05-24T15:11:42.301Z,18.80
2023-05-24T15:13:15.074Z,18.80
2023-05-24T15:14:47.907Z,18.90
2023-05-24T15:16:20.823Z,19.00
2023-05-24T15:17:53.695Z,18.80
2023-05-24T15:19:26.551Z,18.80
2023-05-24T15:20:59.446Z,18.80
2023-05-24T15:22:33.403Z,18.70
2023-05-24T15:24:06.414Z,18.70
2023-05-24T15:25:39.245Z,18.70
2023-05-24T15:27:13.357Z,18.70
2023-05-24T15:28:46.284Z,18.70
2023-05-24T15:30:19.875Z,19.00
2023-05-24T15:31:52.639Z,18.60
2023-05-24T15:33:26.568Z,18.50
2023-05-24T15:35:00.444Z,18.40
2023-05-24T15:36:33.534Z,18.40
2023-05-24T15:38:06.331Z,18.40
2023-05-24T15:39:39.146Z,18.30
2023-05-24T15:41:11.929Z,14.60
2023-05-24T15:42:47.409Z,18.50
2023-05-24T15:44:20.224Z,18.40
2023-05-24T15:45:53.637Z,18.30
2023-05-24T15:47:29.128Z,18.30
2023-05-24T15:49:01.995Z,18.30
2023-05-24T15:50:55.673Z,18.30
2023-05-24T15:52:27.579Z,18.40
2023-05-24T15:54:00.560Z,18.40
2023-05-24T15:55:33.680Z,18.60
2023-05-24T15:57:06.775Z,18.60
2023-05-24T15:58:41.084Z,18.60
2023-05-24T16:00:14.396Z,18.60
2023-05-24T16:01:47.238Z,18.70
2023-05-24T16:03:20.303Z,18.60
2023-05-24T16:04:53.138Z,18.60
2023-05-24T16:06:25.971Z,18.50
2023-05-24T16:07:58.744Z,18.60
2023-05-24T16:09:31.560Z,18.60
2023-05-24T16:11:08.119Z,18.50
2023-05-24T16:12:41.240Z,18.60
2023-05-24T16:14:15.670Z,18.90
2023-05-24T16:15:51.435Z,19.20
2023-05-24T16:17:24.303Z,19.40
2023-05-24T16:18:57.437Z,19.40
2023-05-24T16:20:30.294Z,19.30
2023-05-24T16:22:03.244Z,17.90
2023-05-24T16:23:36.176Z,19.10
2023-05-24T16:25:09.305Z,19.00
2023-05-24T16:26:42.094Z,19.00
2023-05-24T16:28:14.926Z,18.90
2023-05-24T16:29:49.284Z,19.10
2023-05-24T16:31:22.177Z,19.10
2023-05-24T16:32:55.208Z,19.10
2023-05-24T16:34:28.101Z,19.10
2023-05-24T16:36:03.609Z,19.10
2023-05-24T16:37:36.460Z,19.20
2023-05-24T16:39:11.879Z,19.20
2023-05-24T16:40:44.789Z,19.20
2023-05-24T16:42:17.716Z,19.10
2023-05-24T16:43:50.572Z,18.90
2023-05-24T16:45:24.722Z,18.60
2023-05-24T16:46:57.502Z,18.50
2023-05-24T16:48:31.545Z,18.40
2023-05-24T16:50:06.239Z,18.20
2023-05-24T16:51:39.101Z,17.90
2023-05-24T16:53:11.956Z,17.80
2023-05-24T16:54:44.754Z,16.60
2023-05-24T16:56:17.545Z,17.70
2023-05-24T16:57:50.837Z,17.90
2023-05-24T16:59:23.947Z,18.20
2023-05-24T17:00:58.537Z,18.00
2023-05-24T17:02:31.651Z,15.30
2023-05-24T17:04:04.679Z,17.90
2023-05-24T17:05:37.559Z,18.00
2023-05-24T17:07:10.398Z,18.00
2023-05-24T17:08:43.229Z,18.00
2023-05-24T17:10:16.061Z,18.00
2023-05-24T17:11:50.668Z,18.00
2023-05-24T17:13:24.016Z,17.90
2023-05-24T17:14:56.841Z,18.00
2023-05-24T17:16:31.015Z,17.90
2023-05-24T17:18:03.919Z,17.80
2023-05-24T17:19:36.975Z,17.70
2023-05-24T17:21:09.787Z,17.60
2023-05-24T17:22:42.669Z,17.60
2023-05-24T17:24:15.622Z,17.50
2023-05-24T17:25:48.528Z,17.30
2023-05-24T17:27:22.519Z,17.20
2023-05-24T17:28:56.320Z,17.10
2023-05-24T17:30:30.503Z,17.00
2023-05-24T17:32:05.264Z,16.90
2023-05-24T17:33:38.142Z,16.90
2023-05-24T17:35:11.033Z,16.80
2023-05-24T17:36:43.972Z,16.60
2023-05-24T17:38:16.738Z,16.60
2023-05-24T17:39:52.317Z,16.50
2023-05-24T17:41:25.093Z,16.40
2023-05-24T17:42:57.876Z,16.40
2023-05-24T17:44:31.268Z,16.30
2023-05-24T17:46:06.571Z,16.30
2023-05-24T17:47:41.216Z,15.90
2023-05-24T17:49:14.294Z,16.10
2023-05-24T17:50:47.047Z,16.10
2023-05-24T17:52:19.982Z,16.10
2023-05-24T17:53:52.807Z,16.00
2023-05-24T17:55:25.703Z,16.00
2023-05-24T17:56:58.515Z,16.00
2023-05-24T17:58:35.382Z,15.90
2023-05-24T18:00:08.779Z,15.90
2023-05-24T18:01:41.583Z,15.80
2023-05-24T18:03:15.868Z,15.80
2023-05-24T18:04:48.696Z,15.80
2023-05-24T18:06:21.583Z,15.80
2023-05-24T18:07:54.342Z,15.70
2023-05-24T18:09:29.636Z,15.70
2023-05-24T18:11:07.844Z,15.70
2023-05-24T18:12:40.903Z,15.60
2023-05-24T18:14:13.738Z,15.60
2023-05-24T18:15:46.540Z,15.60
2023-05-24T18:17:19.448Z,15.60
2023-05-24T18:18:54.393Z,15.50
2023-05-24T18:20:27.271Z,15.50
2023-05-24T18:22:00.141Z,15.40
2023-05-24T18:23:34.143Z,17.30
2023-05-24T18:25:07.486Z,15.40
2023-05-24T18:26:40.237Z,17.80
2023-05-24T18:28:13.148Z,15.20
2023-05-24T18:29:45.973Z,15.20
2023-05-24T18:31:20.275Z,15.20
2023-05-24T18:33:04.469Z,15.10
2023-05-24T18:34:41.520Z,15.10
2023-05-24T18:36:14.364Z,15.00
2023-05-24T18:37:47.339Z,15.00
2023-05-24T18:39:20.076Z,14.90
2023-05-24T18:40:52.935Z,14.80
2023-05-24T18:42:25.688Z,14.80
2023-05-24T18:43:58.475Z,14.70
2023-05-24T18:45:31.270Z,14.70
2023-05-24T18:47:04.383Z,14.70
2023-05-24T18:48:37.833Z,14.70
2023-05-24T18:50:12.179Z,14.60
2023-05-24T18:51:44.955Z,14.60
2023-05-24T18:53:17.655Z,14.60
2023-05-24T18:54:50.459Z,14.50
2023-05-24T18:56:23.214Z,14.50
2023-05-24T18:57:56.015Z,14.40
2023-05-24T18:59:31.626Z,14.40
2023-05-24T19:01:04.462Z,14.40
2023-05-24T19:02:39.041Z,14.40
2023-05-24T19:04:12.254Z,14.30
2023-05-24T19:05:46.797Z,14.20
2023-05-24T19:07:19.674Z,14.20
2023-05-24T19:08:52.463Z,14.20
2023-05-24T19:10:25.354Z,14.20
2023-05-24T19:11:59.278Z,14.10
2023-05-24T19:13:32.168Z,14.10
2023-05-24T19:15:05.394Z,14.00
2023-05-24T19:16:38.233Z,14.00
2023-05-24T19:18:11.087Z,14.00
2023-05-24T19:19:44.456Z,13.90
2023-05-24T19:21:18.586Z,13.90
2023-05-24T19:22:51.365Z,13.80
2023-05-24T19:24:25.886Z,13.80
2023-05-24T19:25:58.759Z,13.80
2023-05-24T19:27:31.569Z,13.80
2023-05-24T19:29:04.392Z,13.70
2023-05-24T19:30:37.872Z,13.60
2023-05-24T19:32:11.544Z,13.60
2023-05-24T19:33:58.595Z,13.60
2023-05-24T19:35:32.937Z,13.60
2023-05-24T19:37:07.126Z,13.50
2023-05-24T19:38:39.922Z,13.50
2023-05-24T19:40:12.837Z,13.50
2023-05-24T19:41:45.677Z,13.40
2023-05-24T19:43:18.457Z,13.40
2023-05-24T19:44:51.260Z,13.40
2023-05-24T19:46:24.225Z,13.30
2023-05-24T19:47:57.085Z,13.20
2023-05-24T19:49:30.031Z,13.30
2023-05-24T19:51:02.855Z,13.20
2023-05-24T19:52:36.981Z,13.20
2023-05-24T19:54:10.069Z,13.20
2023-05-24T19:55:43.170Z,13.10
2023-05-24T19:57:16.183Z,13.10
2023-05-24T19:58:50.022Z,13.00
2023-05-24T20:00:22.837Z,12.90
2023-05-24T20:01:55.619Z,13.00
2023-05-24T20:03:27.574Z,13.00
2023-05-24T20:05:00.741Z,13.00
2023-05-24T20:06:33.533Z,12.90
2023-05-24T20:08:07.759Z,12.90
2023-05-24T20:09:41.705Z,12.90
2023-05-24T20:11:14.597Z,12.90
2023-05-24T20:12:47.413Z,12.90
2023-05-24T20:14:20.315Z,12.90
2023-05-24T20:15:55.823Z,16.90
2023-05-24T20:17:29.007Z,12.80
2023-05-24T20:19:01.833Z,12.70
2023-05-24T20:20:34.698Z,12.70
2023-05-24T20:22:07.649Z,12.70
2023-05-24T20:23:42.289Z,12.70
2023-05-24T20:25:15.085Z,8.90
2023-05-24T20:26:48.192Z,12.80
2023-05-24T20:28:30.225Z,12.70
2023-05-24T20:30:04.728Z,12.80
2023-05-24T20:31:38.245Z,12.80
2023-05-24T20:33:11.058Z,12.80
2023-05-24T20:34:43.846Z,12.90
2023-05-24T20:36:16.836Z,13.00
2023-05-24T20:37:49.641Z,12.90
2023-05-24T20:39:23.726Z,13.00
2023-05-24T20:40:56.693Z,13.60
2023-05-24T20:42:29.480Z,13.00
2023-05-24T20:44:02.251Z,12.90
2023-05-24T20:45:35.186Z,15.20
2023-05-24T20:47:08.087Z,13.00
2023-05-24T20:48:42.070Z,13.00
2023-05-24T20:50:15.049Z,13.00
2023-05-24T20:51:47.952Z,12.90
2023-05-24T20:53:20.739Z,12.90
2023-05-24T20:54:54.880Z,12.80
2023-05-24T20:56:27.720Z,12.80
2023-05-24T20:58:00.498Z,13.10
2023-05-24T20:59:33.363Z,12.80
2023-05-24T21:01:06.321Z,12.70
2023-05-24T21:02:40.262Z,12.80
2023-05-24T21:04:13.140Z,12.80
2023-05-24T21:05:46.149Z,12.90
2023-05-24T21:07:19.085Z,12.70
2023-05-24T21:08:51.843Z,12.70
2023-05-24T21:10:27.821Z,12.70
2023-05-24T21:12:01.618Z,12.70
2023-05-24T21:13:34.383Z,12.70
2023-05-24T21:15:07.674Z,12.60
2023-05-24T21:16:40.513Z,12.70
2023-05-24T21:18:13.425Z,11.00
2023-05-24T21:19:46.211Z,12.60
2023-05-24T21:21:19.238Z,12.60
2023-05-24T21:22:52.005Z,12.50
2023-05-24T21:24:24.754Z,12.50
2023-05-24T21:25:58.915Z,12.50